Aérodrome :
LOGIN :

S'inscrire | Disclaimer

   EN    FR    IT 

 










Légende :    VFR   VFR Marginal   IFR   IFR Intensif   IFR Très Intensif
Visi : 
Plafond : 
>= 8 km
>= 3000ft
5 à 8 km
1000 à 3000 ft
1500m à 5 km
500 à 1000 ft
800 à 1500m
200 à 500 ft
< 800m
< 200 ft
Symboles :   Orages  Brouillard  Fortes neiges  Fortes précipitations  Vent > 20 kt
SIGMETs :   Divers  Orages  Givrage  Turbulence  Onde Orograph.  Cendres Volcan.







- Altitude de l'aérodrome : 364 ft
- Voir les cartes d'approche


LFAQ - Albert Bray

DERNIER METAR :
  • 280300Z AUTO 21020KT 9999 SCT026 OVC032 04/01 Q0990

METARs EXPIRÉS :
  • 280230Z AUTO 21019KT 9999 SCT028 BKN034 OVC040 04/01 Q0990
  • 280200Z AUTO 21020KT 9999 OVC028 04/01 Q0991
  • 280130Z AUTO 21017KT 9999 BKN027 04/01 Q0991
  • 280100Z AUTO 22019KT 9999 SCT029 04/01 Q0991
  • 280030Z AUTO 21017KT 9999 SCT029 SCT034 04/01 Q0991

Prévision TAF périmée.
Pas de NOTAMs connus pour ce terrain.
1 SIGMET publié pour la FIR Paris (LFFF) :
 
Turbulence forte
LFFF SIGMET 11 VALID 280000/280400 LFPW
LFFF PARIS FIR/UIR SEV TURB FCST WI N4915 W00015 - N5000 W00015 - N5100 E00145 - N5015 E00200 SFC/FL060 STNR NC=



MET'MAP, la Météo Aéronautique d'un coup d'oeil ! - Copyright ORBIFLY Décembre 2007 - Disclaimer

ORBIFLY MET'MAP TEAM :

Programmation & Développement : Alexandra Zaïnal
Conception & Développement : Baudouin d'Aumeries
Co-Programmation & Développement : Marc-Olivier Méhu
Soutien technique & logistique : Manuel Goepfert

Contact : metmap@orbifly.com




SOURCES & CREDITS :

   NOAA